sensor_id;sensor_type;location;lat;lon;timestamp;P1;durP1;ratioP1;P2;durP2;ratioP2
65581;SDS011;52231;40.090;18.348;2023-12-28T00:02:17;101.70;;;35.03;;
65581;SDS011;52231;40.090;18.348;2023-12-28T00:04:46;106.25;;;32.75;;
65581;SDS011;52231;40.090;18.348;2023-12-28T00:07:14;73.82;;;31.50;;
65581;SDS011;52231;40.090;18.348;2023-12-28T00:09:43;86.50;;;30.60;;
65581;SDS011;52231;40.090;18.348;2023-12-28T00:12:11;66.68;;;28.27;;
65581;SDS011;52231;40.090;18.348;2023-12-28T00:14:39;69.90;;;26.75;;
65581;SDS011;52231;40.090;18.348;2023-12-28T00:17:08;78.63;;;28.55;;
65581;SDS011;52231;40.090;18.348;2023-12-28T00:19:36;69.60;;;27.90;;
65581;SDS011;52231;40.090;18.348;2023-12-28T00:22:05;93.35;;;29.85;;
65581;SDS011;52231;40.090;18.348;2023-12-28T00:24:34;77.63;;;28.25;;
65581;SDS011;52231;40.090;18.348;2023-12-28T00:27:02;69.68;;;26.42;;
65581;SDS011;52231;40.090;18.348;2023-12-28T00:29:31;82.28;;;27.73;;
65581;SDS011;52231;40.090;18.348;2023-12-28T00:32:01;70.30;;;26.95;;
65581;SDS011;52231;40.090;18.348;2023-12-28T00:34:30;65.38;;;27.13;;
65581;SDS011;52231;40.090;18.348;2023-12-28T00:36:58;73.78;;;28.10;;
65581;SDS011;52231;40.090;18.348;2023-12-28T00:39:27;72.00;;;31.83;;
65581;SDS011;52231;40.090;18.348;2023-12-28T00:41:55;80.43;;;30.00;;
65581;SDS011;52231;40.090;18.348;2023-12-28T00:44:24;106.50;;;31.50;;
65581;SDS011;52231;40.090;18.348;2023-12-28T00:46:52;84.57;;;31.77;;
65581;SDS011;52231;40.090;18.348;2023-12-28T00:49:20;85.03;;;32.38;;
65581;SDS011;52231;40.090;18.348;2023-12-28T00:51:48;86.55;;;35.67;;
65581;SDS011;52231;40.090;18.348;2023-12-28T00:54:17;90.82;;;38.25;;
65581;SDS011;52231;40.090;18.348;2023-12-28T00:56:45;111.45;;;36.78;;
65581;SDS011;52231;40.090;18.348;2023-12-28T00:59:13;104.40;;;37.40;;
65581;SDS011;52231;40.090;18.348;2023-12-28T01:01:42;86.93;;;34.95;;
65581;SDS011;52231;40.090;18.348;2023-12-28T01:04:10;86.57;;;36.53;;
65581;SDS011;52231;40.090;18.348;2023-12-28T01:06:38;115.45;;;36.30;;
65581;SDS011;52231;40.090;18.348;2023-12-28T01:09:06;91.55;;;36.30;;
65581;SDS011;52231;40.090;18.348;2023-12-28T01:11:35;76.43;;;33.50;;
65581;SDS011;52231;40.090;18.348;2023-12-28T01:14:04;87.65;;;33.80;;
65581;SDS011;52231;40.090;18.348;2023-12-28T01:16:32;107.90;;;33.38;;
65581;SDS011;52231;40.090;18.348;2023-12-28T01:19:00;87.20;;;34.28;;
65581;SDS011;52231;40.090;18.348;2023-12-28T01:21:29;81.78;;;30.83;;
65581;SDS011;52231;40.090;18.348;2023-12-28T01:23:57;90.75;;;31.95;;
65581;SDS011;52231;40.090;18.348;2023-12-28T01:26:26;117.80;;;32.42;;
65581;SDS011;52231;40.090;18.348;2023-12-28T01:28:54;114.82;;;32.92;;
65581;SDS011;52231;40.090;18.348;2023-12-28T01:31:27;74.07;;;27.55;;
65581;SDS011;52231;40.090;18.348;2023-12-28T01:33:55;72.90;;;25.05;;
65581;SDS011;52231;40.090;18.348;2023-12-28T01:36:23;62.00;;;22.83;;
65581;SDS011;52231;40.090;18.348;2023-12-28T01:38:52;56.33;;;22.58;;
65581;SDS011;52231;40.090;18.348;2023-12-28T01:41:20;72.55;;;25.52;;
65581;SDS011;52231;40.090;18.348;2023-12-28T01:43:49;73.78;;;26.20;;
65581;SDS011;52231;40.090;18.348;2023-12-28T01:46:17;73.97;;;26.38;;
65581;SDS011;52231;40.090;18.348;2023-12-28T01:48:48;76.30;;;30.90;;
65581;SDS011;52231;40.090;18.348;2023-12-28T01:51:19;89.88;;;31.60;;
65581;SDS011;52231;40.090;18.348;2023-12-28T01:53:48;75.55;;;25.00;;
65581;SDS011;52231;40.090;18.348;2023-12-28T01:56:18;97.60;;;24.90;;
65581;SDS011;52231;40.090;18.348;2023-12-28T01:58:48;95.97;;;24.38;;
65581;SDS011;52231;40.090;18.348;2023-12-28T02:01:18;90.53;;;22.63;;
65581;SDS011;52231;40.090;18.348;2023-12-28T02:03:48;65.60;;;22.67;;
65581;SDS011;52231;40.090;18.348;2023-12-28T02:08:48;79.95;;;23.35;;
65581;SDS011;52231;40.090;18.348;2023-12-28T02:11:17;68.35;;;22.45;;
65581;SDS011;52231;40.090;18.348;2023-12-28T02:13:47;71.28;;;22.17;;
65581;SDS011;52231;40.090;18.348;2023-12-28T02:16:16;107.93;;;23.95;;
65581;SDS011;52231;40.090;18.348;2023-12-28T02:19:00;82.32;;;21.75;;
65581;SDS011;52231;40.090;18.348;2023-12-28T02:21:39;91.72;;;21.25;;
65581;SDS011;52231;40.090;18.348;2023-12-28T02:24:08;92.80;;;20.15;;
65581;SDS011;52231;40.090;18.348;2023-12-28T02:26:38;65.78;;;20.55;;
65581;SDS011;52231;40.090;18.348;2023-12-28T02:29:06;78.40;;;20.05;;
65581;SDS011;52231;40.090;18.348;2023-12-28T02:31:37;80.68;;;21.63;;
65581;SDS011;52231;40.090;18.348;2023-12-28T02:34:29;97.60;;;21.80;;
65581;SDS011;52231;40.090;18.348;2023-12-28T02:37:05;70.43;;;20.33;;
65581;SDS011;52231;40.090;18.348;2023-12-28T02:42:03;73.65;;;21.17;;
65581;SDS011;52231;40.090;18.348;2023-12-28T02:44:32;65.90;;;21.02;;
65581;SDS011;52231;40.090;18.348;2023-12-28T02:47:00;77.20;;;21.95;;
65581;SDS011;52231;40.090;18.348;2023-12-28T02:49:28;54.33;;;18.67;;
65581;SDS011;52231;40.090;18.348;2023-12-28T02:51:56;54.70;;;17.02;;
65581;SDS011;52231;40.090;18.348;2023-12-28T02:54:24;51.08;;;16.33;;
65581;SDS011;52231;40.090;18.348;2023-12-28T02:56:52;49.15;;;16.30;;
65581;SDS011;52231;40.090;18.348;2023-12-28T02:59:22;59.47;;;16.30;;
65581;SDS011;52231;40.090;18.348;2023-12-28T03:01:50;47.83;;;15.63;;
65581;SDS011;52231;40.090;18.348;2023-12-28T03:04:18;71.35;;;16.85;;
65581;SDS011;52231;40.090;18.348;2023-12-28T03:06:47;59.60;;;16.33;;
65581;SDS011;52231;40.090;18.348;2023-12-28T03:09:15;50.38;;;15.27;;
65581;SDS011;52231;40.090;18.348;2023-12-28T03:11:43;51.83;;;16.33;;
65581;SDS011;52231;40.090;18.348;2023-12-28T03:14:11;69.78;;;18.98;;
65581;SDS011;52231;40.090;18.348;2023-12-28T03:16:39;71.00;;;18.88;;
65581;SDS011;52231;40.090;18.348;2023-12-28T03:19:08;68.43;;;19.60;;
65581;SDS011;52231;40.090;18.348;2023-12-28T03:21:40;93.50;;;21.73;;
65581;SDS011;52231;40.090;18.348;2023-12-28T03:24:08;70.82;;;21.75;;
65581;SDS011;52231;40.090;18.348;2023-12-28T03:26:40;88.97;;;22.52;;
65581;SDS011;52231;40.090;18.348;2023-12-28T03:29:08;69.63;;;21.55;;
65581;SDS011;52231;40.090;18.348;2023-12-28T03:31:39;67.32;;;21.65;;
65581;SDS011;52231;40.090;18.348;2023-12-28T03:34:08;70.40;;;22.23;;
65581;SDS011;52231;40.090;18.348;2023-12-28T03:36:36;72.50;;;20.75;;
65581;SDS011;52231;40.090;18.348;2023-12-28T03:39:04;51.95;;;21.13;;
65581;SDS011;52231;40.090;18.348;2023-12-28T03:41:33;47.28;;;16.80;;
65581;SDS011;52231;40.090;18.348;2023-12-28T03:44:01;54.20;;;16.50;;
65581;SDS011;52231;40.090;18.348;2023-12-28T03:46:30;52.70;;;14.90;;
65581;SDS011;52231;40.090;18.348;2023-12-28T03:48:58;51.47;;;14.07;;
65581;SDS011;52231;40.090;18.348;2023-12-28T03:53:55;41.33;;;13.60;;
65581;SDS011;52231;40.090;18.348;2023-12-28T03:56:24;45.90;;;15.15;;
65581;SDS011;52231;40.090;18.348;2023-12-28T03:58:54;42.22;;;13.10;;
65581;SDS011;52231;40.090;18.348;2023-12-28T04:01:22;51.65;;;14.05;;
65581;SDS011;52231;40.090;18.348;2023-12-28T04:03:51;48.40;;;14.27;;
65581;SDS011;52231;40.090;18.348;2023-12-28T04:06:19;48.35;;;13.63;;
65581;SDS011;52231;40.090;18.348;2023-12-28T04:08:47;45.75;;;13.23;;
65581;SDS011;52231;40.090;18.348;2023-12-28T04:13:44;54.50;;;13.60;;
65581;SDS011;52231;40.090;18.348;2023-12-28T04:16:15;46.60;;;13.18;;
65581;SDS011;52231;40.090;18.348;2023-12-28T04:18:43;63.38;;;15.88;;
65581;SDS011;52231;40.090;18.348;2023-12-28T04:21:12;51.85;;;14.77;;
65581;SDS011;52231;40.090;18.348;2023-12-28T04:23:41;46.75;;;14.52;;
65581;SDS011;52231;40.090;18.348;2023-12-28T04:26:09;50.97;;;13.75;;
65581;SDS011;52231;40.090;18.348;2023-12-28T04:28:38;53.45;;;16.67;;
65581;SDS011;52231;40.090;18.348;2023-12-28T04:31:07;53.22;;;14.52;;
65581;SDS011;52231;40.090;18.348;2023-12-28T04:33:35;64.95;;;14.43;;
65581;SDS011;52231;40.090;18.348;2023-12-28T04:36:03;55.58;;;15.23;;
65581;SDS011;52231;40.090;18.348;2023-12-28T04:38:33;44.97;;;15.43;;
65581;SDS011;52231;40.090;18.348;2023-12-28T04:41:01;65.68;;;15.20;;
65581;SDS011;52231;40.090;18.348;2023-12-28T04:43:29;49.63;;;14.00;;
65581;SDS011;52231;40.090;18.348;2023-12-28T04:46:01;50.22;;;15.75;;
65581;SDS011;52231;40.090;18.348;2023-12-28T04:48:31;57.13;;;14.05;;
65581;SDS011;52231;40.090;18.348;2023-12-28T04:51:02;88.32;;;15.57;;
65581;SDS011;52231;40.090;18.348;2023-12-28T04:53:30;52.25;;;14.10;;
65581;SDS011;52231;40.090;18.348;2023-12-28T04:55:59;52.33;;;14.00;;
65581;SDS011;52231;40.090;18.348;2023-12-28T04:58:27;65.60;;;14.43;;
65581;SDS011;52231;40.090;18.348;2023-12-28T05:00:55;53.58;;;13.77;;
65581;SDS011;52231;40.090;18.348;2023-12-28T05:03:23;52.15;;;13.63;;
65581;SDS011;52231;40.090;18.348;2023-12-28T05:08:20;45.72;;;13.77;;
65581;SDS011;52231;40.090;18.348;2023-12-28T05:10:48;89.05;;;13.80;;
65581;SDS011;52231;40.090;18.348;2023-12-28T05:13:16;57.38;;;12.52;;
65581;SDS011;52231;40.090;18.348;2023-12-28T05:15:45;56.83;;;14.75;;
65581;SDS011;52231;40.090;18.348;2023-12-28T05:18:13;55.65;;;12.05;;
65581;SDS011;52231;40.090;18.348;2023-12-28T05:20:41;63.13;;;11.65;;
65581;SDS011;52231;40.090;18.348;2023-12-28T05:23:10;63.15;;;11.02;;
65581;SDS011;52231;40.090;18.348;2023-12-28T05:25:38;64.63;;;10.35;;
65581;SDS011;52231;40.090;18.348;2023-12-28T05:28:06;59.60;;;10.05;;
65581;SDS011;52231;40.090;18.348;2023-12-28T05:30:34;70.93;;;11.07;;
65581;SDS011;52231;40.090;18.348;2023-12-28T05:33:02;68.28;;;11.55;;
65581;SDS011;52231;40.090;18.348;2023-12-28T05:35:30;42.42;;;10.32;;
65581;SDS011;52231;40.090;18.348;2023-12-28T05:37:58;43.78;;;9.77;;
65581;SDS011;52231;40.090;18.348;2023-12-28T05:40:27;61.25;;;10.52;;
65581;SDS011;52231;40.090;18.348;2023-12-28T05:42:55;51.85;;;9.82;;
65581;SDS011;52231;40.090;18.348;2023-12-28T05:45:23;50.83;;;10.82;;
65581;SDS011;52231;40.090;18.348;2023-12-28T05:47:52;48.97;;;12.05;;
65581;SDS011;52231;40.090;18.348;2023-12-28T05:52:49;36.22;;;8.88;;
65581;SDS011;52231;40.090;18.348;2023-12-28T05:55:17;37.33;;;9.02;;
65581;SDS011;52231;40.090;18.348;2023-12-28T05:57:45;47.88;;;8.63;;
65581;SDS011;52231;40.090;18.348;2023-12-28T06:00:14;55.47;;;9.20;;
65581;SDS011;52231;40.090;18.348;2023-12-28T06:02:43;58.65;;;9.20;;
65581;SDS011;52231;40.090;18.348;2023-12-28T06:05:13;57.45;;;8.93;;
65581;SDS011;52231;40.090;18.348;2023-12-28T06:07:42;47.78;;;9.23;;
65581;SDS011;52231;40.090;18.348;2023-12-28T06:10:10;98.45;;;11.88;;
65581;SDS011;52231;40.090;18.348;2023-12-28T06:12:38;88.28;;;10.98;;
65581;SDS011;52231;40.090;18.348;2023-12-28T06:15:07;123.65;;;13.25;;
65581;SDS011;52231;40.090;18.348;2023-12-28T06:20:04;90.05;;;12.48;;
65581;SDS011;52231;40.090;18.348;2023-12-28T06:22:32;85.22;;;11.77;;
65581;SDS011;52231;40.090;18.348;2023-12-28T06:25:00;84.57;;;11.15;;
65581;SDS011;52231;40.090;18.348;2023-12-28T06:27:29;85.97;;;10.10;;
65581;SDS011;52231;40.090;18.348;2023-12-28T06:29:57;62.53;;;12.90;;
65581;SDS011;52231;40.090;18.348;2023-12-28T06:32:25;94.78;;;11.77;;
65581;SDS011;52231;40.090;18.348;2023-12-28T06:34:54;86.15;;;11.10;;
65581;SDS011;52231;40.090;18.348;2023-12-28T06:37:22;60.35;;;10.95;;
65581;SDS011;52231;40.090;18.348;2023-12-28T06:39:50;71.95;;;11.40;;
65581;SDS011;52231;40.090;18.348;2023-12-28T06:42:18;58.38;;;9.93;;
65581;SDS011;52231;40.090;18.348;2023-12-28T06:44:46;71.97;;;9.98;;
65581;SDS011;52231;40.090;18.348;2023-12-28T06:47:14;59.00;;;9.50;;
65581;SDS011;52231;40.090;18.348;2023-12-28T06:49:43;47.45;;;9.50;;
65581;SDS011;52231;40.090;18.348;2023-12-28T06:52:11;53.50;;;8.65;;
65581;SDS011;52231;40.090;18.348;2023-12-28T06:54:39;38.40;;;7.90;;
65581;SDS011;52231;40.090;18.348;2023-12-28T06:57:08;52.65;;;8.07;;
65581;SDS011;52231;40.090;18.348;2023-12-28T06:59:36;52.35;;;9.15;;
65581;SDS011;52231;40.090;18.348;2023-12-28T07:02:04;45.40;;;9.63;;
65581;SDS011;52231;40.090;18.348;2023-12-28T07:04:32;60.35;;;10.10;;
65581;SDS011;52231;40.090;18.348;2023-12-28T07:07:01;62.00;;;9.98;;
65581;SDS011;52231;40.090;18.348;2023-12-28T07:09:29;45.28;;;11.45;;
65581;SDS011;52231;40.090;18.348;2023-12-28T07:11:57;73.78;;;13.38;;
65581;SDS011;52231;40.090;18.348;2023-12-28T07:14:27;73.50;;;15.52;;
65581;SDS011;52231;40.090;18.348;2023-12-28T07:16:55;66.95;;;16.55;;
65581;SDS011;52231;40.090;18.348;2023-12-28T07:19:23;53.25;;;10.23;;
65581;SDS011;52231;40.090;18.348;2023-12-28T07:21:51;64.57;;;12.02;;
65581;SDS011;52231;40.090;18.348;2023-12-28T07:24:20;60.70;;;11.68;;
65581;SDS011;52231;40.090;18.348;2023-12-28T07:26:48;104.78;;;24.55;;
65581;SDS011;52231;40.090;18.348;2023-12-28T07:29:17;97.63;;;22.08;;
65581;SDS011;52231;40.090;18.348;2023-12-28T07:31:46;58.13;;;16.10;;
65581;SDS011;52231;40.090;18.348;2023-12-28T07:34:14;64.15;;;17.67;;
65581;SDS011;52231;40.090;18.348;2023-12-28T07:36:42;46.35;;;13.55;;
65581;SDS011;52231;40.090;18.348;2023-12-28T07:41:39;62.85;;;13.40;;
65581;SDS011;52231;40.090;18.348;2023-12-28T07:44:07;51.90;;;15.00;;
65581;SDS011;52231;40.090;18.348;2023-12-28T07:46:35;50.55;;;15.68;;
65581;SDS011;52231;40.090;18.348;2023-12-28T07:49:03;74.85;;;19.60;;
65581;SDS011;52231;40.090;18.348;2023-12-28T07:51:32;53.63;;;13.73;;
65581;SDS011;52231;40.090;18.348;2023-12-28T07:54:00;57.38;;;14.20;;
65581;SDS011;52231;40.090;18.348;2023-12-28T07:56:28;66.90;;;18.13;;
65581;SDS011;52231;40.090;18.348;2023-12-28T07:58:56;56.13;;;12.38;;
65581;SDS011;52231;40.090;18.348;2023-12-28T08:01:24;50.30;;;11.07;;
65581;SDS011;52231;40.090;18.348;2023-12-28T08:03:52;51.25;;;10.27;;
65581;SDS011;52231;40.090;18.348;2023-12-28T08:06:21;55.00;;;12.13;;
65581;SDS011;52231;40.090;18.348;2023-12-28T08:08:49;55.58;;;12.43;;
65581;SDS011;52231;40.090;18.348;2023-12-28T08:11:17;38.78;;;8.68;;
65581;SDS011;52231;40.090;18.348;2023-12-28T08:13:46;55.65;;;9.15;;
65581;SDS011;52231;40.090;18.348;2023-12-28T08:16:14;50.15;;;16.85;;
65581;SDS011;52231;40.090;18.348;2023-12-28T08:18:42;61.45;;;18.63;;
65581;SDS011;52231;40.090;18.348;2023-12-28T08:21:10;51.92;;;12.65;;
65581;SDS011;52231;40.090;18.348;2023-12-28T08:23:39;43.78;;;13.40;;
65581;SDS011;52231;40.090;18.348;2023-12-28T08:26:07;44.60;;;12.75;;
65581;SDS011;52231;40.090;18.348;2023-12-28T08:28:35;52.78;;;17.38;;
65581;SDS011;52231;40.090;18.348;2023-12-28T08:31:04;53.50;;;15.40;;
65581;SDS011;52231;40.090;18.348;2023-12-28T08:33:32;50.38;;;11.93;;
65581;SDS011;52231;40.090;18.348;2023-12-28T08:36:00;33.90;;;10.32;;
65581;SDS011;52231;40.090;18.348;2023-12-28T08:38:30;46.83;;;10.32;;
65581;SDS011;52231;40.090;18.348;2023-12-28T08:40:58;46.50;;;10.30;;
65581;SDS011;52231;40.090;18.348;2023-12-28T08:43:27;45.00;;;10.60;;
65581;SDS011;52231;40.090;18.348;2023-12-28T08:45:55;63.83;;;12.73;;
65581;SDS011;52231;40.090;18.348;2023-12-28T08:48:23;51.90;;;12.40;;
65581;SDS011;52231;40.090;18.348;2023-12-28T08:50:51;61.13;;;13.73;;
65581;SDS011;52231;40.090;18.348;2023-12-28T08:53:19;66.18;;;14.73;;
65581;SDS011;52231;40.090;18.348;2023-12-28T08:55:48;57.13;;;13.85;;
65581;SDS011;52231;40.090;18.348;2023-12-28T08:58:16;56.90;;;14.75;;
65581;SDS011;52231;40.090;18.348;2023-12-28T09:00:44;47.75;;;15.65;;
65581;SDS011;52231;40.090;18.348;2023-12-28T09:03:13;45.97;;;14.85;;
65581;SDS011;52231;40.090;18.348;2023-12-28T09:05:41;66.90;;;16.00;;
65581;SDS011;52231;40.090;18.348;2023-12-28T09:08:09;37.45;;;16.17;;
65581;SDS011;52231;40.090;18.348;2023-12-28T09:10:38;42.40;;;17.58;;
65581;SDS011;52231;40.090;18.348;2023-12-28T09:13:14;43.17;;;16.88;;
65581;SDS011;52231;40.090;18.348;2023-12-28T09:16:02;38.92;;;18.08;;
65581;SDS011;52231;40.090;18.348;2023-12-28T09:18:32;43.40;;;18.27;;
65581;SDS011;52231;40.090;18.348;2023-12-28T09:21:04;45.75;;;18.00;;
65581;SDS011;52231;40.090;18.348;2023-12-28T09:23:33;44.80;;;18.63;;
65581;SDS011;52231;40.090;18.348;2023-12-28T09:26:02;37.13;;;17.70;;
65581;SDS011;52231;40.090;18.348;2023-12-28T09:28:32;38.60;;;18.58;;
65581;SDS011;52231;40.090;18.348;2023-12-28T09:31:01;39.10;;;20.17;;
65581;SDS011;52231;40.090;18.348;2023-12-28T09:33:30;37.53;;;17.30;;
65581;SDS011;52231;40.090;18.348;2023-12-28T09:35:58;35.53;;;18.50;;
65581;SDS011;52231;40.090;18.348;2023-12-28T09:40:55;34.72;;;18.70;;
65581;SDS011;52231;40.090;18.348;2023-12-28T09:43:33;36.58;;;19.48;;
65581;SDS011;52231;40.090;18.348;2023-12-28T09:46:08;34.20;;;18.65;;
65581;SDS011;52231;40.090;18.348;2023-12-28T09:48:38;31.15;;;17.42;;
65581;SDS011;52231;40.090;18.348;2023-12-28T09:51:07;29.98;;;16.88;;
65581;SDS011;52231;40.090;18.348;2023-12-28T09:53:45;34.92;;;20.23;;
65581;SDS011;52231;40.090;18.348;2023-12-28T09:56:13;30.92;;;17.45;;
65581;SDS011;52231;40.090;18.348;2023-12-28T10:01:16;28.00;;;16.35;;
65581;SDS011;52231;40.090;18.348;2023-12-28T10:03:45;29.23;;;16.67;;
65581;SDS011;52231;40.090;18.348;2023-12-28T10:06:13;35.85;;;20.35;;
65581;SDS011;52231;40.090;18.348;2023-12-28T10:08:47;34.30;;;19.35;;
65581;SDS011;52231;40.090;18.348;2023-12-28T10:11:16;39.03;;;22.73;;
65581;SDS011;52231;40.090;18.348;2023-12-28T10:13:45;28.88;;;14.27;;
65581;SDS011;52231;40.090;18.348;2023-12-28T10:18:42;22.65;;;13.23;;
65581;SDS011;52231;40.090;18.348;2023-12-28T10:21:11;38.45;;;17.15;;
65581;SDS011;52231;40.090;18.348;2023-12-28T10:23:40;32.60;;;16.20;;
65581;SDS011;52231;40.090;18.348;2023-12-28T10:26:09;21.98;;;11.02;;
65581;SDS011;52231;40.090;18.348;2023-12-28T10:28:37;26.13;;;14.27;;
65581;SDS011;52231;40.090;18.348;2023-12-28T10:31:07;20.90;;;10.35;;
65581;SDS011;52231;40.090;18.348;2023-12-28T10:33:38;20.52;;;10.82;;
65581;SDS011;52231;40.090;18.348;2023-12-28T10:36:07;20.80;;;12.35;;
65581;SDS011;52231;40.090;18.348;2023-12-28T10:38:40;23.85;;;10.55;;
65581;SDS011;52231;40.090;18.348;2023-12-28T10:41:11;20.83;;;9.98;;
65581;SDS011;52231;40.090;18.348;2023-12-28T10:46:09;16.20;;;7.03;;
65581;SDS011;52231;40.090;18.348;2023-12-28T10:48:39;17.50;;;7.32;;
65581;SDS011;52231;40.090;18.348;2023-12-28T10:51:11;11.27;;;4.05;;
65581;SDS011;52231;40.090;18.348;2023-12-28T10:54:06;9.80;;;4.00;;
65581;SDS011;52231;40.090;18.348;2023-12-28T10:57:05;12.43;;;3.50;;
65581;SDS011;52231;40.090;18.348;2023-12-28T11:00:11;12.70;;;4.32;;
65581;SDS011;52231;40.090;18.348;2023-12-28T11:02:51;12.32;;;3.67;;
65581;SDS011;52231;40.090;18.348;2023-12-28T11:05:21;9.40;;;3.13;;
65581;SDS011;52231;40.090;18.348;2023-12-28T11:07:51;11.27;;;3.97;;
65581;SDS011;52231;40.090;18.348;2023-12-28T11:10:24;10.68;;;3.63;;
65581;SDS011;52231;40.090;18.348;2023-12-28T11:12:52;15.05;;;5.80;;
65581;SDS011;52231;40.090;18.348;2023-12-28T11:15:21;9.35;;;3.92;;
65581;SDS011;52231;40.090;18.348;2023-12-28T11:17:52;8.73;;;3.40;;
65581;SDS011;52231;40.090;18.348;2023-12-28T11:22:49;8.50;;;2.75;;
65581;SDS011;52231;40.090;18.348;2023-12-28T11:25:18;9.65;;;3.30;;
65581;SDS011;52231;40.090;18.348;2023-12-28T11:27:47;10.23;;;3.85;;
65581;SDS011;52231;40.090;18.348;2023-12-28T11:30:15;9.52;;;3.55;;
65581;SDS011;52231;40.090;18.348;2023-12-28T11:35:12;9.32;;;3.78;;
65581;SDS011;52231;40.090;18.348;2023-12-28T11:37:45;10.00;;;3.33;;
65581;SDS011;52231;40.090;18.348;2023-12-28T11:40:17;14.95;;;4.50;;
65581;SDS011;52231;40.090;18.348;2023-12-28T11:42:53;12.82;;;4.10;;
65581;SDS011;52231;40.090;18.348;2023-12-28T11:45:22;10.85;;;3.60;;
65581;SDS011;52231;40.090;18.348;2023-12-28T11:48:00;15.90;;;5.90;;
65581;SDS011;52231;40.090;18.348;2023-12-28T11:50:48;11.93;;;4.57;;
65581;SDS011;52231;40.090;18.348;2023-12-28T11:53:16;11.27;;;4.22;;
65581;SDS011;52231;40.090;18.348;2023-12-28T11:55:46;15.45;;;4.15;;
65581;SDS011;52231;40.090;18.348;2023-12-28T11:58:15;13.15;;;4.53;;
65581;SDS011;52231;40.090;18.348;2023-12-28T12:00:47;10.43;;;3.90;;
65581;SDS011;52231;40.090;18.348;2023-12-28T12:03:20;14.32;;;3.90;;
65581;SDS011;52231;40.090;18.348;2023-12-28T12:05:49;12.00;;;4.25;;
65581;SDS011;52231;40.090;18.348;2023-12-28T12:08:18;10.38;;;3.90;;
65581;SDS011;52231;40.090;18.348;2023-12-28T12:10:46;12.13;;;4.53;;
65581;SDS011;52231;40.090;18.348;2023-12-28T12:13:14;10.88;;;4.57;;
65581;SDS011;52231;40.090;18.348;2023-12-28T12:15:43;15.02;;;5.50;;
65581;SDS011;52231;40.090;18.348;2023-12-28T12:18:11;12.70;;;5.15;;
65581;SDS011;52231;40.090;18.348;2023-12-28T12:20:40;16.45;;;6.38;;
65581;SDS011;52231;40.090;18.348;2023-12-28T12:23:08;14.57;;;7.22;;
65581;SDS011;52231;40.090;18.348;2023-12-28T12:25:36;15.95;;;7.78;;
65581;SDS011;52231;40.090;18.348;2023-12-28T12:28:05;15.20;;;7.72;;
65581;SDS011;52231;40.090;18.348;2023-12-28T12:30:34;16.25;;;7.80;;
65581;SDS011;52231;40.090;18.348;2023-12-28T12:33:02;17.75;;;8.38;;
65581;SDS011;52231;40.090;18.348;2023-12-28T12:35:31;15.60;;;9.52;;
65581;SDS011;52231;40.090;18.348;2023-12-28T12:38:00;18.95;;;9.27;;
65581;SDS011;52231;40.090;18.348;2023-12-28T12:40:28;15.10;;;7.25;;
65581;SDS011;52231;40.090;18.348;2023-12-28T12:42:57;21.90;;;7.95;;
65581;SDS011;52231;40.090;18.348;2023-12-28T12:45:27;13.73;;;4.43;;
65581;SDS011;52231;40.090;18.348;2023-12-28T12:47:57;14.95;;;5.50;;
65581;SDS011;52231;40.090;18.348;2023-12-28T12:50:25;10.88;;;3.63;;
65581;SDS011;52231;40.090;18.348;2023-12-28T12:52:54;9.85;;;3.33;;
65581;SDS011;52231;40.090;18.348;2023-12-28T12:55:23;14.20;;;4.30;;
65581;SDS011;52231;40.090;18.348;2023-12-28T12:57:53;12.32;;;2.67;;
65581;SDS011;52231;40.090;18.348;2023-12-28T13:00:24;9.68;;;3.03;;
65581;SDS011;52231;40.090;18.348;2023-12-28T13:02:53;9.60;;;2.90;;
65581;SDS011;52231;40.090;18.348;2023-12-28T13:05:23;8.48;;;2.70;;
65581;SDS011;52231;40.090;18.348;2023-12-28T13:07:53;11.00;;;2.90;;
65581;SDS011;52231;40.090;18.348;2023-12-28T13:10:22;12.15;;;3.40;;
65581;SDS011;52231;40.090;18.348;2023-12-28T13:12:51;9.88;;;3.22;;
65581;SDS011;52231;40.090;18.348;2023-12-28T13:15:20;10.73;;;2.88;;
65581;SDS011;52231;40.090;18.348;2023-12-28T13:17:49;11.50;;;3.70;;
65581;SDS011;52231;40.090;18.348;2023-12-28T13:20:19;11.32;;;3.25;;
65581;SDS011;52231;40.090;18.348;2023-12-28T13:22:48;10.02;;;3.63;;
65581;SDS011;52231;40.090;18.348;2023-12-28T13:25:16;9.38;;;2.65;;
65581;SDS011;52231;40.090;18.348;2023-12-28T13:27:44;12.70;;;2.83;;
65581;SDS011;52231;40.090;18.348;2023-12-28T13:30:13;8.18;;;2.95;;
65581;SDS011;52231;40.090;18.348;2023-12-28T13:32:41;8.43;;;2.95;;
65581;SDS011;52231;40.090;18.348;2023-12-28T13:35:09;9.35;;;2.80;;
65581;SDS011;52231;40.090;18.348;2023-12-28T13:37:38;8.30;;;2.67;;
65581;SDS011;52231;40.090;18.348;2023-12-28T13:40:07;10.38;;;2.50;;
65581;SDS011;52231;40.090;18.348;2023-12-28T13:42:35;9.15;;;2.92;;
65581;SDS011;52231;40.090;18.348;2023-12-28T13:45:04;10.02;;;2.75;;
65581;SDS011;52231;40.090;18.348;2023-12-28T13:47:33;8.45;;;2.58;;
65581;SDS011;52231;40.090;18.348;2023-12-28T13:52:29;9.95;;;3.30;;
65581;SDS011;52231;40.090;18.348;2023-12-28T13:57:27;12.15;;;3.88;;
65581;SDS011;52231;40.090;18.348;2023-12-28T13:59:55;10.05;;;3.20;;
65581;SDS011;52231;40.090;18.348;2023-12-28T14:02:38;12.75;;;3.90;;
65581;SDS011;52231;40.090;18.348;2023-12-28T14:05:07;14.00;;;4.35;;
65581;SDS011;52231;40.090;18.348;2023-12-28T14:10:04;12.38;;;4.22;;
65581;SDS011;52231;40.090;18.348;2023-12-28T14:12:33;10.90;;;3.67;;
65581;SDS011;52231;40.090;18.348;2023-12-28T14:15:02;9.27;;;3.25;;
65581;SDS011;52231;40.090;18.348;2023-12-28T14:17:30;12.02;;;3.97;;
65581;SDS011;52231;40.090;18.348;2023-12-28T14:20:01;10.95;;;3.83;;
65581;SDS011;52231;40.090;18.348;2023-12-28T14:22:31;8.52;;;3.17;;
65581;SDS011;52231;40.090;18.348;2023-12-28T14:25:01;12.23;;;4.72;;
65581;SDS011;52231;40.090;18.348;2023-12-28T14:29:58;19.23;;;6.93;;
65581;SDS011;52231;40.090;18.348;2023-12-28T14:32:29;18.05;;;5.93;;
65581;SDS011;52231;40.090;18.348;2023-12-28T14:34:58;15.75;;;5.20;;
65581;SDS011;52231;40.090;18.348;2023-12-28T14:39:55;16.58;;;5.40;;
65581;SDS011;52231;40.090;18.348;2023-12-28T14:42:23;17.83;;;4.63;;
65581;SDS011;52231;40.090;18.348;2023-12-28T14:44:52;14.10;;;5.18;;
65581;SDS011;52231;40.090;18.348;2023-12-28T14:47:20;12.98;;;4.57;;
65581;SDS011;52231;40.090;18.348;2023-12-28T14:49:48;12.50;;;4.45;;
65581;SDS011;52231;40.090;18.348;2023-12-28T14:52:17;10.82;;;4.32;;
65581;SDS011;52231;40.090;18.348;2023-12-28T14:54:45;11.77;;;4.53;;
65581;SDS011;52231;40.090;18.348;2023-12-28T14:57:14;12.55;;;4.90;;
65581;SDS011;52231;40.090;18.348;2023-12-28T14:59:42;11.50;;;4.60;;
65581;SDS011;52231;40.090;18.348;2023-12-28T15:02:10;11.35;;;4.70;;
65581;SDS011;52231;40.090;18.348;2023-12-28T15:04:38;12.05;;;4.50;;
65581;SDS011;52231;40.090;18.348;2023-12-28T15:07:08;13.40;;;5.47;;
65581;SDS011;52231;40.090;18.348;2023-12-28T15:09:36;21.83;;;7.60;;
65581;SDS011;52231;40.090;18.348;2023-12-28T15:12:05;20.45;;;9.15;;
65581;SDS011;52231;40.090;18.348;2023-12-28T15:14:34;47.55;;;21.80;;